createdAt,value
2022-11-25T00:01:33.651Z,2.68
2022-11-25T00:04:02.256Z,2.66
2022-11-25T00:06:32.936Z,2.44
2022-11-25T00:09:03.403Z,2.51
2022-11-25T00:11:35.753Z,2.43
2022-11-25T00:14:04.555Z,2.34
2022-11-25T00:16:33.256Z,2.32
2022-11-25T00:19:02.085Z,2.29
2022-11-25T00:21:33.536Z,2.14
2022-11-25T00:24:04.796Z,2.22
2022-11-25T00:26:36.768Z,2.22
2022-11-25T00:29:08.549Z,2.20
2022-11-25T00:31:39.958Z,2.11
2022-11-25T00:34:12.391Z,2.03
2022-11-25T00:36:41.140Z,1.79
2022-11-25T00:39:13.234Z,1.76
2022-11-25T00:41:53.842Z,1.76
2022-11-25T00:44:33.332Z,1.72
2022-11-25T00:47:01.950Z,1.76
2022-11-25T00:49:30.524Z,1.77
2022-11-25T00:51:59.795Z,1.73
2022-11-25T00:54:28.275Z,1.73
2022-11-25T00:56:58.703Z,1.77
2022-11-25T00:59:27.255Z,1.82
2022-11-25T01:01:55.931Z,1.85
2022-11-25T01:04:24.717Z,1.85
2022-11-25T01:06:57.086Z,1.87
2022-11-25T01:09:25.824Z,1.81
2022-11-25T01:11:54.601Z,1.58
2022-11-25T01:14:25.833Z,1.69
2022-11-25T01:16:54.552Z,1.66
2022-11-25T01:19:23.172Z,1.68
2022-11-25T01:21:52.284Z,1.70
2022-11-25T01:24:20.832Z,1.64
2022-11-25T01:26:49.453Z,1.63
2022-11-25T01:29:20.407Z,1.53
2022-11-25T01:31:50.834Z,1.54
2022-11-25T01:34:24.474Z,1.52
2022-11-25T01:36:53.134Z,1.60
2022-11-25T01:39:26.993Z,1.51
2022-11-25T01:42:00.662Z,1.50
2022-11-25T01:44:31.105Z,1.47
2022-11-25T01:47:07.501Z,1.45
2022-11-25T01:49:40.514Z,1.41
2022-11-25T01:52:16.733Z,1.43
2022-11-25T01:54:51.385Z,1.51
2022-11-25T01:57:25.382Z,1.51
2022-11-25T01:59:59.402Z,1.53
2022-11-25T02:02:30.728Z,1.50
2022-11-25T02:05:01.524Z,1.38
2022-11-25T02:07:34.626Z,1.48
2022-11-25T02:10:07.342Z,1.46
2022-11-25T02:12:38.640Z,1.49
2022-11-25T02:15:08.633Z,1.41
2022-11-25T02:17:41.375Z,1.34
2022-11-25T02:20:12.871Z,1.33
2022-11-25T02:22:53.543Z,1.35
2022-11-25T02:25:26.641Z,1.31
2022-11-25T02:28:01.924Z,1.30
2022-11-25T02:30:30.694Z,1.25
2022-11-25T02:33:00.456Z,1.37
2022-11-25T02:35:34.324Z,1.12
2022-11-25T02:38:10.865Z,1.20
2022-11-25T02:40:48.675Z,1.16
2022-11-25T02:43:19.016Z,1.09
2022-11-25T02:45:58.843Z,1.14
2022-11-25T02:48:52.866Z,0.79
2022-11-25T02:51:21.695Z,1.14
2022-11-25T02:53:51.376Z,1.28
2022-11-25T02:56:25.392Z,1.35
2022-11-25T02:58:55.084Z,1.23
2022-11-25T03:01:26.812Z,1.38
2022-11-25T03:03:55.686Z,1.40
2022-11-25T03:06:24.392Z,1.32
2022-11-25T03:08:54.854Z,1.31
2022-11-25T03:11:45.685Z,1.39
2022-11-25T03:14:16.074Z,1.34
2022-11-25T03:16:45.275Z,1.27
2022-11-25T03:19:13.993Z,1.17
2022-11-25T03:21:42.693Z,1.23
2022-11-25T03:24:11.836Z,1.20
2022-11-25T03:26:42.725Z,1.14
2022-11-25T03:29:11.562Z,0.98
2022-11-25T03:31:41.006Z,1.02
2022-11-25T03:34:12.936Z,0.93
2022-11-25T03:36:43.007Z,0.92
2022-11-25T03:39:11.694Z,0.92
2022-11-25T03:41:41.691Z,0.92
2022-11-25T03:44:10.511Z,0.90
2022-11-25T03:46:39.215Z,0.87
2022-11-25T03:49:09.742Z,0.83
2022-11-25T03:51:38.515Z,0.85
2022-11-25T03:54:07.265Z,0.80
2022-11-25T03:56:57.717Z,1.01
2022-11-25T03:59:26.401Z,1.10
2022-11-25T04:01:55.025Z,1.14
2022-11-25T04:04:24.413Z,1.13
2022-11-25T04:06:54.414Z,1.19
2022-11-25T04:09:25.824Z,1.19
2022-11-25T04:12:14.693Z,1.22
2022-11-25T04:14:51.908Z,1.28
2022-11-25T04:17:20.724Z,1.32
2022-11-25T04:19:49.815Z,1.29
2022-11-25T04:22:19.754Z,1.31
2022-11-25T04:24:50.215Z,1.39
2022-11-25T04:27:25.691Z,1.43
2022-11-25T04:29:55.691Z,1.44
2022-11-25T04:32:24.416Z,1.45
2022-11-25T04:34:54.004Z,1.38
2022-11-25T04:37:23.674Z,1.29
2022-11-25T04:39:52.883Z,1.42
2022-11-25T04:42:31.417Z,1.45
2022-11-25T04:47:57.193Z,1.43
2022-11-25T04:50:26.502Z,1.45
2022-11-25T04:53:15.464Z,1.39
2022-11-25T04:55:45.033Z,1.41
2022-11-25T04:58:38.250Z,1.43
2022-11-25T05:01:08.091Z,1.45
2022-11-25T05:03:38.337Z,1.34
2022-11-25T05:06:08.171Z,1.46
2022-11-25T05:08:38.754Z,1.46
2022-11-25T05:11:08.206Z,1.38
2022-11-25T05:13:36.952Z,1.51
2022-11-25T05:16:06.095Z,1.57
2022-11-25T05:18:36.183Z,1.59
2022-11-25T05:21:06.603Z,1.59
2022-11-25T05:23:39.893Z,1.53
2022-11-25T05:26:08.694Z,1.58
2022-11-25T05:28:44.552Z,1.58
2022-11-25T05:31:14.390Z,1.50
2022-11-25T05:33:44.542Z,1.44
2022-11-25T05:36:13.326Z,1.41
2022-11-25T05:38:46.067Z,1.43
2022-11-25T05:41:19.543Z,1.47
2022-11-25T05:43:49.084Z,1.48
2022-11-25T05:46:18.137Z,1.51
2022-11-25T05:48:55.903Z,1.55
2022-11-25T05:51:25.212Z,1.52
2022-11-25T05:53:55.793Z,1.50
2022-11-25T05:56:29.615Z,1.50
2022-11-25T05:59:24.457Z,1.35
2022-11-25T06:02:03.790Z,1.31
2022-11-25T06:04:35.092Z,1.17
2022-11-25T06:07:05.112Z,1.16
2022-11-25T06:09:34.531Z,1.25
2022-11-25T06:12:03.095Z,1.32
2022-11-25T06:14:33.437Z,1.32
2022-11-25T06:17:02.635Z,1.28
2022-11-25T06:19:37.576Z,1.24
2022-11-25T06:22:06.304Z,1.31
2022-11-25T06:24:36.773Z,1.37
2022-11-25T06:27:09.157Z,1.33
2022-11-25T06:29:38.873Z,1.42
2022-11-25T06:32:07.487Z,1.42
2022-11-25T06:34:46.217Z,1.58
2022-11-25T06:37:30.554Z,1.65
2022-11-25T06:39:59.677Z,1.74
2022-11-25T06:42:28.432Z,1.93
2022-11-25T06:44:57.115Z,1.99
2022-11-25T06:47:26.545Z,2.16
2022-11-25T06:49:57.132Z,2.24
2022-11-25T06:52:25.794Z,2.21
2022-11-25T06:54:54.364Z,2.20
2022-11-25T06:57:22.943Z,2.12
2022-11-25T06:59:51.864Z,2.10
2022-11-25T07:02:20.878Z,2.10
2022-11-25T07:04:49.668Z,2.03
2022-11-25T07:07:19.896Z,1.97
2022-11-25T07:09:48.777Z,1.93
2022-11-25T07:12:17.682Z,1.97
2022-11-25T07:14:46.446Z,2.04
2022-11-25T07:17:14.944Z,2.15
2022-11-25T07:19:45.504Z,2.18
2022-11-25T07:22:14.208Z,2.18
2022-11-25T07:24:44.124Z,2.23
2022-11-25T07:27:13.256Z,2.28
2022-11-25T07:30:03.146Z,2.35
2022-11-25T07:32:34.143Z,2.32
2022-11-25T07:35:02.745Z,2.36
2022-11-25T07:37:31.185Z,2.40
2022-11-25T07:40:01.269Z,2.41
2022-11-25T07:42:29.787Z,2.42
2022-11-25T07:44:58.403Z,2.22
2022-11-25T07:47:47.393Z,2.29
2022-11-25T07:50:15.935Z,2.33
2022-11-25T07:52:44.560Z,2.28
2022-11-25T07:55:14.647Z,2.36
2022-11-25T07:57:44.145Z,2.24
2022-11-25T08:00:14.866Z,2.37
2022-11-25T08:02:43.640Z,2.28
2022-11-25T08:05:12.335Z,2.41
2022-11-25T08:07:40.960Z,2.42
2022-11-25T08:10:10.607Z,2.41
2022-11-25T08:12:40.353Z,2.41
2022-11-25T08:15:10.103Z,2.50
2022-11-25T08:17:38.635Z,2.53
2022-11-25T08:20:08.629Z,2.55
2022-11-25T08:22:38.065Z,2.55
2022-11-25T08:25:07.525Z,2.63
2022-11-25T08:27:36.128Z,2.57
2022-11-25T08:30:07.450Z,2.72
2022-11-25T08:32:39.135Z,2.65
2022-11-25T08:35:09.413Z,2.79
2022-11-25T08:37:38.810Z,2.80
2022-11-25T08:40:08.797Z,2.69
2022-11-25T08:42:37.809Z,2.92
2022-11-25T08:45:09.968Z,3.02
2022-11-25T08:47:39.186Z,3.08
2022-11-25T08:50:10.040Z,3.05
2022-11-25T08:52:38.580Z,3.07
2022-11-25T08:55:08.750Z,3.00
2022-11-25T08:57:37.423Z,3.11
2022-11-25T09:00:09.918Z,3.11
2022-11-25T09:02:38.474Z,3.14
2022-11-25T09:05:07.322Z,3.14
2022-11-25T09:07:35.898Z,3.03
2022-11-25T09:10:04.930Z,3.14
2022-11-25T09:12:33.870Z,3.22
2022-11-25T09:15:02.511Z,3.22
2022-11-25T09:17:34.651Z,3.21
2022-11-25T09:20:05.360Z,3.18
2022-11-25T09:22:34.052Z,3.37
2022-11-25T09:25:02.677Z,3.50
2022-11-25T09:27:32.508Z,3.55
2022-11-25T09:30:00.934Z,3.58
2022-11-25T09:32:30.451Z,3.68
2022-11-25T09:35:00.397Z,3.79
2022-11-25T09:37:29.532Z,3.84
2022-11-25T09:39:58.954Z,3.91
2022-11-25T09:42:43.903Z,4.00
2022-11-25T09:45:28.193Z,4.07
2022-11-25T09:48:07.464Z,4.21
2022-11-25T09:50:50.317Z,4.28
2022-11-25T09:53:36.215Z,4.34
2022-11-25T09:56:13.196Z,4.37
2022-11-25T09:58:48.269Z,4.41
2022-11-25T10:01:20.553Z,4.48
2022-11-25T10:03:55.302Z,4.54
2022-11-25T10:06:28.407Z,4.56
2022-11-25T10:09:00.335Z,4.61
2022-11-25T10:11:36.269Z,4.73
2022-11-25T10:14:12.917Z,4.86
2022-11-25T10:16:51.720Z,4.93
2022-11-25T10:19:36.022Z,4.95
2022-11-25T10:22:24.203Z,5.03
2022-11-25T10:24:56.104Z,5.12
2022-11-25T10:27:30.079Z,5.13
2022-11-25T10:30:06.759Z,5.19
2022-11-25T10:32:43.432Z,5.19
2022-11-25T10:35:26.688Z,5.24
2022-11-25T10:38:00.754Z,5.32
2022-11-25T10:40:29.543Z,5.40
2022-11-25T10:42:58.043Z,5.51
2022-11-25T10:45:33.549Z,5.59
2022-11-25T10:48:19.196Z,5.69
2022-11-25T10:51:04.427Z,5.83
2022-11-25T10:53:34.348Z,5.89
2022-11-25T10:56:04.947Z,5.98
2022-11-25T10:58:36.053Z,6.10
2022-11-25T11:01:08.384Z,6.20
2022-11-25T11:03:37.437Z,6.19
2022-11-25T11:06:05.968Z,6.21
2022-11-25T11:08:41.276Z,6.31
2022-11-25T11:11:15.827Z,6.31
2022-11-25T11:13:44.871Z,6.16
2022-11-25T11:16:29.235Z,6.34
2022-11-25T11:18:58.914Z,6.43
2022-11-25T11:21:32.974Z,6.50
2022-11-25T11:24:04.144Z,6.50
2022-11-25T11:26:35.475Z,6.38
2022-11-25T11:29:12.679Z,6.58
2022-11-25T11:31:48.925Z,6.57
2022-11-25T11:34:44.695Z,6.51
2022-11-25T11:37:33.659Z,6.50
2022-11-25T11:40:23.211Z,6.54
2022-11-25T11:42:59.336Z,6.58
2022-11-25T11:45:48.615Z,6.63
2022-11-25T11:48:26.288Z,6.68
2022-11-25T11:51:02.907Z,6.72
2022-11-25T11:53:36.198Z,6.80
2022-11-25T11:56:34.398Z,6.83
2022-11-25T11:59:20.450Z,6.84
2022-11-25T12:02:07.392Z,6.85
2022-11-25T12:04:41.624Z,6.82
2022-11-25T12:07:17.220Z,6.86
2022-11-25T12:09:51.378Z,6.84
2022-11-25T12:12:29.316Z,6.86
2022-11-25T12:15:06.870Z,6.87
2022-11-25T12:17:42.219Z,6.85
2022-11-25T12:20:20.904Z,6.89
2022-11-25T12:22:55.615Z,6.90
2022-11-25T12:25:27.118Z,6.90
2022-11-25T12:28:03.097Z,6.91
2022-11-25T12:30:36.645Z,6.89
2022-11-25T12:33:11.597Z,6.86
2022-11-25T12:35:50.629Z,6.89
2022-11-25T12:38:28.902Z,6.78
2022-11-25T12:41:04.080Z,6.99
2022-11-25T12:43:44.121Z,6.99
2022-11-25T12:46:25.965Z,7.03
2022-11-25T12:48:56.254Z,7.05
2022-11-25T12:51:42.821Z,7.16
2022-11-25T12:54:26.029Z,7.43
2022-11-25T12:57:23.299Z,7.64
2022-11-25T13:00:39.521Z,7.82
2022-11-25T13:03:27.501Z,7.95
2022-11-25T13:06:21.738Z,7.96
2022-11-25T13:08:59.697Z,7.90
2022-11-25T13:12:00.531Z,7.84
2022-11-25T13:14:42.320Z,7.78
2022-11-25T13:17:16.691Z,7.66
2022-11-25T13:19:46.289Z,7.62
2022-11-25T13:22:29.877Z,7.76
2022-11-25T13:24:59.521Z,7.71
2022-11-25T13:27:50.173Z,7.67
2022-11-25T13:30:38.980Z,7.59
2022-11-25T13:33:33.853Z,7.56
2022-11-25T13:36:19.251Z,7.50
2022-11-25T13:39:00.440Z,7.43
2022-11-25T13:41:45.303Z,7.34
2022-11-25T13:44:22.759Z,7.28
2022-11-25T13:46:54.291Z,7.21
2022-11-25T13:49:44.775Z,7.12
2022-11-25T13:52:35.714Z,7.01
2022-11-25T13:55:11.772Z,6.91
2022-11-25T13:57:43.428Z,6.74
2022-11-25T14:00:44.876Z,6.74
2022-11-25T14:03:35.269Z,6.68
2022-11-25T14:06:08.679Z,6.62
2022-11-25T14:08:43.650Z,6.62
2022-11-25T14:11:51.491Z,6.61
2022-11-25T14:14:31.161Z,6.60
2022-11-25T14:17:08.420Z,6.57
2022-11-25T14:19:57.564Z,6.58
2022-11-25T14:22:36.677Z,6.60
2022-11-25T14:25:17.849Z,6.62
2022-11-25T14:27:50.435Z,6.63
2022-11-25T14:30:20.749Z,6.66
2022-11-25T14:32:57.934Z,6.68
2022-11-25T14:35:31.960Z,6.66
2022-11-25T14:38:04.450Z,6.72
2022-11-25T14:40:38.087Z,6.77
2022-11-25T14:43:16.466Z,6.76
2022-11-25T14:45:45.600Z,6.77
2022-11-25T14:48:15.234Z,6.60
2022-11-25T14:50:56.251Z,6.68
2022-11-25T14:53:25.991Z,6.77
2022-11-25T14:55:55.234Z,6.75
2022-11-25T14:58:25.545Z,6.73
2022-11-25T15:01:01.822Z,6.64
2022-11-25T15:03:30.641Z,6.51
2022-11-25T15:06:04.904Z,6.63
2022-11-25T15:08:41.923Z,6.60
2022-11-25T15:11:17.025Z,6.57
2022-11-25T15:13:53.220Z,6.55
2022-11-25T15:16:25.433Z,6.55
2022-11-25T15:18:57.715Z,6.55
2022-11-25T15:21:31.273Z,6.52
2022-11-25T15:24:00.522Z,6.53
2022-11-25T15:26:30.870Z,6.50
2022-11-25T15:29:04.615Z,6.49
2022-11-25T15:31:36.130Z,6.46
2022-11-25T15:34:08.355Z,6.45
2022-11-25T15:36:37.473Z,6.42
2022-11-25T15:39:26.082Z,6.41
2022-11-25T15:41:57.915Z,6.41
2022-11-25T15:44:30.717Z,6.39
2022-11-25T15:47:05.284Z,6.41
2022-11-25T15:49:35.821Z,6.41
2022-11-25T15:52:08.716Z,6.40
2022-11-25T15:54:44.022Z,6.38
2022-11-25T15:57:20.116Z,6.36
2022-11-25T16:00:14.803Z,6.38
2022-11-25T16:02:55.953Z,6.34
2022-11-25T16:05:37.572Z,6.32
2022-11-25T16:08:31.616Z,6.31
2022-11-25T16:11:10.999Z,6.31
2022-11-25T16:13:40.969Z,6.28
2022-11-25T16:16:18.046Z,6.28
2022-11-25T16:18:56.215Z,6.27
2022-11-25T16:21:27.864Z,6.25
2022-11-25T16:24:01.429Z,6.26
2022-11-25T16:26:33.253Z,6.27
2022-11-25T16:29:04.651Z,6.24
2022-11-25T16:31:34.691Z,6.24
2022-11-25T16:34:14.593Z,6.23
2022-11-25T16:36:44.287Z,6.25
2022-11-25T16:39:13.184Z,6.24
2022-11-25T16:41:42.783Z,6.20
2022-11-25T16:44:17.963Z,6.18
2022-11-25T16:46:47.996Z,6.18
2022-11-25T16:49:18.535Z,6.12
2022-11-25T16:51:47.075Z,6.11
2022-11-25T16:54:16.631Z,6.11
2022-11-25T16:56:47.255Z,6.12
2022-11-25T16:59:19.473Z,6.13
2022-11-25T17:01:49.932Z,6.17
2022-11-25T17:04:19.337Z,6.18
2022-11-25T17:07:16.502Z,6.03
2022-11-25T17:09:37.031Z,6.13
2022-11-25T17:12:08.779Z,6.13
2022-11-25T17:14:38.596Z,6.09
2022-11-25T17:17:13.888Z,6.14
2022-11-25T17:19:42.582Z,6.09
2022-11-25T17:22:18.414Z,6.09
2022-11-25T17:24:47.266Z,6.06
2022-11-25T17:27:21.275Z,6.06
2022-11-25T17:29:50.737Z,6.02
2022-11-25T17:32:20.962Z,5.99
2022-11-25T17:34:49.479Z,5.98
2022-11-25T17:37:20.756Z,5.99
2022-11-25T17:39:49.245Z,5.90
2022-11-25T17:42:19.937Z,5.67
2022-11-25T17:44:52.892Z,5.66
2022-11-25T17:47:24.231Z,5.80
2022-11-25T17:49:53.372Z,5.80
2022-11-25T17:52:21.905Z,5.68
2022-11-25T17:54:50.519Z,5.69
2022-11-25T17:57:23.717Z,5.62
2022-11-25T17:59:52.297Z,5.61
2022-11-25T18:02:23.825Z,5.59
2022-11-25T18:04:52.461Z,5.61
2022-11-25T18:07:21.089Z,5.61
2022-11-25T18:09:49.715Z,5.58
2022-11-25T18:12:22.785Z,5.58
2022-11-25T18:14:51.375Z,5.54
2022-11-25T18:17:20.430Z,5.49
2022-11-25T18:19:54.961Z,5.39
2022-11-25T18:22:24.880Z,5.34
2022-11-25T18:24:53.851Z,5.23
2022-11-25T18:27:24.912Z,5.21
2022-11-25T18:29:53.931Z,5.13
2022-11-25T18:32:23.682Z,5.07
2022-11-25T18:34:54.074Z,5.06
2022-11-25T18:37:23.478Z,5.00
2022-11-25T18:39:52.064Z,4.96
2022-11-25T18:42:25.870Z,4.76
2022-11-25T18:44:56.316Z,4.49
2022-11-25T18:47:25.114Z,4.72
2022-11-25T18:49:56.507Z,4.68
2022-11-25T18:52:25.839Z,4.57
2022-11-25T18:54:54.457Z,4.52
2022-11-25T18:57:23.078Z,4.42
2022-11-25T19:00:17.336Z,4.50
2022-11-25T19:02:40.580Z,4.49
2022-11-25T19:05:19.969Z,4.45
2022-11-25T19:07:50.477Z,4.39
2022-11-25T19:10:19.598Z,4.37
2022-11-25T19:12:51.374Z,4.42
2022-11-25T19:15:24.359Z,4.31
2022-11-25T19:17:58.425Z,4.22
2022-11-25T19:20:30.821Z,3.96
2022-11-25T19:23:01.209Z,4.03
2022-11-25T19:25:30.856Z,4.02
2022-11-25T19:28:02.733Z,3.90
2022-11-25T19:30:33.625Z,3.70
2022-11-25T19:33:03.627Z,3.77
2022-11-25T19:35:38.009Z,3.78
2022-11-25T19:38:12.608Z,3.79
2022-11-25T19:40:41.728Z,3.69
2022-11-25T19:43:10.438Z,3.65
2022-11-25T19:45:39.821Z,3.63
2022-11-25T19:48:13.971Z,3.52
2022-11-25T19:50:45.515Z,3.39
2022-11-25T19:53:19.094Z,3.33
2022-11-25T19:55:48.158Z,3.30
2022-11-25T19:58:17.365Z,3.15
2022-11-25T20:00:48.847Z,3.08
2022-11-25T20:03:26.085Z,3.04
2022-11-25T20:05:56.137Z,3.00
2022-11-25T20:08:27.239Z,2.98
2022-11-25T20:10:56.179Z,2.93
2022-11-25T20:13:26.487Z,2.94
2022-11-25T20:15:56.581Z,2.97
2022-11-25T20:18:27.615Z,2.93
2022-11-25T20:21:03.282Z,2.94
2022-11-25T20:23:43.313Z,2.98
2022-11-25T20:26:18.602Z,2.97
2022-11-25T20:28:47.474Z,2.94
2022-11-25T20:31:17.579Z,2.94
2022-11-25T20:33:48.817Z,2.86
2022-11-25T20:36:24.100Z,2.91
2022-11-25T20:38:56.191Z,2.89
2022-11-25T20:41:27.967Z,2.85
2022-11-25T20:43:58.221Z,2.86
2022-11-25T20:46:30.201Z,2.88
2022-11-25T20:49:00.905Z,2.87
2022-11-25T20:51:31.020Z,2.90
2022-11-25T20:54:02.521Z,2.85
2022-11-25T20:56:31.339Z,2.84
2022-11-25T20:58:59.834Z,2.83
2022-11-25T21:01:28.648Z,2.80
2022-11-25T21:03:57.059Z,2.80
2022-11-25T21:06:28.930Z,2.86
2022-11-25T21:09:02.429Z,2.91
2022-11-25T21:11:33.276Z,2.96
2022-11-25T21:14:01.974Z,2.94
2022-11-25T21:16:30.684Z,2.88
2022-11-25T21:19:00.381Z,2.89
2022-11-25T21:21:33.408Z,2.84
2022-11-25T21:24:08.681Z,2.78
2022-11-25T21:26:37.295Z,2.79
2022-11-25T21:29:05.725Z,2.80
2022-11-25T21:31:34.381Z,2.80
2022-11-25T21:34:04.729Z,2.70
2022-11-25T21:36:33.329Z,2.69
2022-11-25T21:39:06.474Z,2.61
2022-11-25T21:41:35.582Z,2.57
2022-11-25T21:44:07.797Z,2.47
2022-11-25T21:46:36.966Z,2.43
2022-11-25T21:49:11.590Z,2.47
2022-11-25T21:51:40.241Z,2.56
2022-11-25T21:54:11.644Z,2.63
2022-11-25T21:56:40.288Z,2.69
2022-11-25T21:59:09.423Z,2.71
2022-11-25T22:01:38.122Z,2.76
2022-11-25T22:04:06.998Z,2.78
2022-11-25T22:06:35.511Z,2.81
2022-11-25T22:09:05.111Z,2.80
2022-11-25T22:11:35.691Z,2.73
2022-11-25T22:14:06.803Z,2.63
2022-11-25T22:16:37.778Z,2.62
2022-11-25T22:19:07.380Z,2.60
2022-11-25T22:21:35.986Z,2.59
2022-11-25T22:24:14.564Z,2.58
2022-11-25T22:26:46.996Z,2.47
2022-11-25T22:29:18.393Z,2.49
2022-11-25T22:31:50.012Z,2.47
2022-11-25T22:34:21.636Z,2.42
2022-11-25T22:36:51.437Z,2.32
2022-11-25T22:39:21.061Z,2.28
2022-11-25T22:41:52.482Z,2.25
2022-11-25T22:44:25.054Z,2.16
2022-11-25T22:46:53.937Z,2.12
2022-11-25T22:49:38.045Z,2.07
2022-11-25T22:52:09.077Z,2.10
2022-11-25T22:54:37.885Z,2.11
2022-11-25T22:57:09.531Z,1.98
2022-11-25T22:59:38.182Z,1.87
2022-11-25T23:02:07.976Z,1.87
2022-11-25T23:04:36.948Z,1.92
2022-11-25T23:07:11.862Z,1.78
2022-11-25T23:09:40.536Z,1.72
2022-11-25T23:12:13.833Z,1.72
2022-11-25T23:14:43.106Z,1.70
2022-11-25T23:17:18.903Z,1.76
2022-11-25T23:19:47.981Z,1.81
2022-11-25T23:22:16.734Z,1.85
2022-11-25T23:24:46.850Z,1.95
2022-11-25T23:27:17.671Z,1.99
2022-11-25T23:29:46.346Z,1.98
2022-11-25T23:32:20.123Z,1.91
2022-11-25T23:34:51.774Z,1.93
2022-11-25T23:37:20.527Z,1.96
2022-11-25T23:39:52.852Z,1.99
2022-11-25T23:42:22.923Z,2.06
2022-11-25T23:44:51.534Z,2.11
2022-11-25T23:47:22.933Z,2.15
2022-11-25T23:49:54.011Z,2.20
2022-11-25T23:52:27.163Z,2.25
2022-11-25T23:54:56.570Z,2.29
2022-11-25T23:57:31.374Z,2.30
